| time (UTC) | temp C | wind direction | speed KPH | gust KPH | rain 1hr cm | rain 24hr cm | rain mn cm | humidity % | barometer mb |
| 20260504130644 | 15 | 123 | 3.2 | 11.3 | 0.00 | 0.00 | 0.00 | 61 | 1003.0 |
| 20260504130140 | 15 | 210 | 1.6 | 11.3 | 0.00 | 0.00 | 0.00 | 62 | 1003.1 |
| 20260504120104 | 11 | 257 | 0.0 | 3.2 | 0.00 | 0.00 | 0.00 | 73 | 1003.4 |
| 20260504110532 | 8 | 160 | 0.0 | 4.8 | 0.00 | 0.00 | 0.00 | 79 | 1002.9 |
| 20260504100448 | 8 | 92 | 1.6 | 3.2 | 0.00 | 0.00 | 0.00 | 74 | 1003.4 |
| 20260504081841 | 8 | 107 | 3.2 | 4.8 | 0.00 | 0.00 | 0.00 | 72 | 1004.2 |
| 20260504081338 | 8 | 134 | 0.0 | 3.2 | 0.00 | 0.00 | 0.00 | 73 | 1004.3 |
| 20260504080833 | 8 | 55 | 0.0 | 1.6 | 0.00 | 0.00 | 0.00 | 72 | 1004.4 |
| 20260504080331 | 8 | 121 | 0.0 | 1.6 | 0.00 | 0.00 | 0.00 | 73 | 1004.5 |
| 20260504070258 | 8 | 321 | 0.0 | 1.6 | 0.00 | 0.00 | 0.00 | 72 | 1005.1 |
| 20260504060219 | 10 | 76 | 1.6 | 3.2 | 0.00 | 0.00 | 0.00 | 66 | 1005.8 |
| 20260504050646 | 12 | 290 | 0.0 | 4.8 | 0.00 | 0.00 | 0.00 | 61 | 1006.4 |
| 20260504050143 | 12 | 274 | 1.6 | 4.8 | 0.00 | 0.00 | 0.00 | 61 | 1006.2 |
| 20260504045641 | 12 | 310 | 0.0 | 4.8 | 0.00 | 0.00 | 0.00 | 61 | 1006.3 |
| 20260504045140 | 12 | 290 | 3.2 | 3.2 | 0.00 | 0.00 | 0.00 | 62 | 1006.4 |
| 20260504044638 | 12 | 262 | 4.8 | 6.4 | 0.00 | 0.00 | 0.00 | 61 | 1006.4 |
| 20260504044135 | 12 | 268 | 3.2 | 4.8 | 0.00 | 0.00 | 0.00 | 61 | 1006.5 |
| 20260504043632 | 12 | 260 | 3.2 | 6.4 | 0.00 | 0.00 | 0.00 | 61 | 1006.4 |
| 20260504043129 | 12 | 261 | 3.2 | 6.4 | 0.00 | 0.00 | 0.00 | 61 | 1006.4 |
| 20260504042626 | 12 | 269 | 0.0 | 4.8 | 0.00 | 0.00 | 0.00 | 60 | 1006.7 |
| 20260504042123 | 12 | 245 | 0.0 | 4.8 | 0.00 | 0.00 | 0.00 | 60 | 1006.5 |
| 20260504041619 | 12 | 275 | 1.6 | 4.8 | 0.00 | 0.00 | 0.00 | 59 | 1006.5 |
| 20260504041115 | 13 | 280 | 1.6 | 4.8 | 0.00 | 0.00 | 0.00 | 58 | 1006.5 |
| 20260504040613 | 13 | 265 | 3.2 | 4.8 | 0.00 | 0.00 | 0.00 | 58 | 1006.5 |
| 20260504040109 | 13 | 267 | 3.2 | 4.8 | 0.00 | 0.00 | 0.00 | 57 | 1006.6 |
| 20260504035606 | 13 | 269 | 3.2 | 3.2 | 0.00 | 0.00 | 0.00 | 56 | 1006.6 |
| 20260504035102 | 13 | 267 | 3.2 | 4.8 | 0.00 | 0.00 | 0.00 | 55 | 1006.5 |
| 20260504034600 | 13 | 252 | 0.0 | 4.8 | 0.00 | 0.00 | 0.00 | 56 | 1006.6 |
| 20260504034057 | 13 | 240 | 0.0 | 3.2 | 0.00 | 0.00 | 0.00 | 55 | 1006.7 |
| 20260504033555 | 14 | 256 | 3.2 | 8.0 | 0.00 | 0.00 | 0.00 | 55 | 1006.5 |
| 20260504033052 | 14 | 249 | 4.8 | 9.7 | 0.00 | 0.00 | 0.00 | 54 | 1006.7 |
| 20260504032549 | 13 | 271 | 3.2 | 8.0 | 0.00 | 0.00 | 0.00 | 53 | 1006.5 |
| 20260504032046 | 13 | 264 | 1.6 | 4.8 | 0.00 | 0.00 | 0.00 | 52 | 1006.8 |
| 20260504031543 | 13 | 303 | 1.6 | 4.8 | 0.00 | 0.00 | 0.00 | 53 | 1006.6 |
| 20260504031039 | 13 | 284 | 0.0 | 4.8 | 0.00 | 0.00 | 0.00 | 53 | 1006.7 |
| 20260504030536 | 13 | 278 | 4.8 | 8.0 | 0.00 | 0.00 | 0.00 | 52 | 1006.6 |
| 20260504030032 | 14 | 261 | 1.6 | 8.0 | 0.00 | 0.00 | 0.00 | 52 | 1006.8 |
| 20260504025530 | 13 | 272 | 3.2 | 9.7 | 0.00 | 0.00 | 0.00 | 51 | 1006.6 |
| 20260504025026 | 13 | 289 | 1.6 | 4.8 | 0.00 | 0.00 | 0.00 | 52 | 1006.5 |
| 20260504024523 | 14 | 272 | 3.2 | 4.8 | 0.00 | 0.00 | 0.00 | 51 | 1006.6 |
| 20260504024020 | 14 | 259 | 3.2 | 9.7 | 0.00 | 0.00 | 0.00 | 51 | 1006.7 |
| 20260504023517 | 14 | 280 | 3.2 | 4.8 | 0.00 | 0.00 | 0.00 | 51 | 1006.4 |
| 20260504023013 | 15 | 274 | 3.2 | 8.0 | 0.00 | 0.00 | 0.00 | 51 | 1006.4 |
| 20260504022509 | 15 | 242 | 4.8 | 8.0 | 0.00 | 0.00 | 0.00 | 51 | 1006.4 |
| 20260504022006 | 15 | 256 | 4.8 | 8.0 | 0.00 | 0.00 | 0.00 | 51 | 1006.2 |
| 20260504021503 | 15 | 274 | 0.0 | 3.2 | 0.00 | 0.00 | 0.00 | 50 | 1006.4 |
| 20260504021000 | 15 | 227 | 3.2 | 8.0 | 0.00 | 0.00 | 0.00 | 48 | 1006.2 |
| 20260504020456 | 15 | 250 | 3.2 | 4.8 | 0.00 | 0.00 | 0.00 | 48 | 1006.2 |
| 20260504015953 | 15 | 244 | 0.0 | 6.4 | 0.00 | 0.00 | 0.00 | 48 | 1006.0 |
| 20260504015449 | 15 | 263 | 1.6 | 3.2 | 0.00 | 0.00 | 0.00 | 48 | 1006.0 |
| 20260504014945 | 16 | 265 | 4.8 | 8.0 | 0.00 | 0.00 | 0.00 | 47 | 1006.0 |
| 20260504014441 | 16 | 285 | 3.2 | 4.8 | 0.00 | 0.00 | 0.00 | 47 | 1006.0 |
| 20260504013938 | 15 | 269 | 0.0 | 1.6 | 0.00 | 0.00 | 0.00 | 49 | 1005.9 |
| 20260504013437 | 15 | 142 | 0.0 | 1.6 | 0.00 | 0.00 | 0.00 | 48 | 1006.0 |
| 20260504012932 | 16 | 322 | 0.0 | 3.2 | 0.00 | 0.00 | 0.00 | 46 | 1006.0 |
| 20260504012431 | 17 | 266 | 3.2 | 9.7 | 0.00 | 0.00 | 0.00 | 45 | 1006.0 |
| 20260504011928 | 17 | 251 | 8.0 | 11.3 | 0.00 | 0.00 | 0.00 | 42 | 1005.9 |
| 20260504011425 | 17 | 263 | 6.4 | 9.7 | 0.00 | 0.00 | 0.00 | 42 | 1005.8 |
| 20260504010920 | 18 | 256 | 12.9 | 12.9 | 0.00 | 0.00 | 0.00 | 44 | 1005.8 |
| 20260504010417 | 18 | 258 | 8.0 | 11.3 | 0.00 | 0.00 | 0.00 | 45 | 1005.7 |
| 20260504005913 | 18 | 258 | 4.8 | 8.0 | 0.00 | 0.00 | 0.00 | 46 | 1005.7 |
| 20260504005410 | 19 | 267 | 4.8 | 11.3 | 0.00 | 0.00 | 0.00 | 45 | 1005.6 |
| 20260504004908 | 20 | 268 | 4.8 | 9.7 | 0.00 | 0.00 | 0.00 | 44 | 1005.5 |
| 20260504004405 | 20 | 277 | 4.8 | 11.3 | 0.00 | 0.00 | 0.00 | 43 | 1005.7 |
| 20260504003902 | 20 | 265 | 9.7 | 17.7 | 0.00 | 0.00 | 0.00 | 42 | 1005.7 |
| 20260504003358 | 20 | 273 | 8.0 | 16.1 | 0.00 | 0.00 | 0.00 | 43 | 1005.4 |
| 20260504002855 | 21 | 261 | 12.9 | 27.4 | 0.00 | 0.00 | 0.00 | 42 | 1005.5 |
| 20260504002352 | 21 | 246 | 14.5 | 25.7 | 0.00 | 0.00 | 0.00 | 42 | 1005.3 |
| 20260504001849 | 21 | 247 | 20.9 | 25.7 | 0.00 | 0.00 | 0.00 | 42 | 1005.3 |
| 20260504001347 | 21 | 248 | 14.5 | 30.6 | 0.00 | 0.00 | 0.00 | 42 | 1005.5 |
| 20260504000843 | 21 | 239 | 19.3 | 38.6 | 0.00 | 0.00 | 0.00 | 41 | 1005.4 |
| 20260504000340 | 21 | 254 | 22.5 | 30.6 | 0.00 | 0.00 | 0.00 | 42 | 1005.3 |
| 20260503235838 | 21 | 247 | 24.1 | 40.2 | 0.00 | 0.00 | 0.00 | 42 | 1005.1 |
| 20260503235335 | 22 | 245 | 17.7 | 29.0 | 0.00 | 0.00 | 0.00 | 41 | 1005.4 |
| 20260503234833 | 21 | 244 | 19.3 | 27.4 | 0.00 | 0.00 | 0.00 | 42 | 1005.6 |
| 20260503234330 | 22 | 253 | 14.5 | 30.6 | 0.00 | 0.00 | 0.00 | 42 | 1005.3 |
| 20260503233828 | 22 | 246 | 20.9 | 32.2 | 0.00 | 0.00 | 0.00 | 41 | 1005.1 |
| 20260503233323 | 22 | 253 | 38.6 | 40.2 | 0.00 | 0.00 | 0.00 | 40 | 1005.4 |
| 20260503232820 | 22 | 254 | 12.9 | 29.0 | 0.00 | 0.00 | 0.00 | 43 | 1005.7 |
| 20260503232318 | 21 | 248 | 27.4 | 33.8 | 0.00 | 0.00 | 0.00 | 42 | 1005.5 |
| 20260503231816 | 22 | 244 | 20.9 | 32.2 | 0.00 | 0.00 | 0.00 | 42 | 1005.7 |
| 20260503231312 | 21 | 253 | 17.7 | 33.8 | 0.00 | 0.00 | 0.00 | 43 | 1005.7 |
| 20260503230808 | 21 | 248 | 19.3 | 37.0 | 0.00 | 0.00 | 0.00 | 44 | 1005.6 |
| 20260503230306 | 21 | 248 | 27.4 | 40.2 | 0.00 | 0.00 | 0.00 | 43 | 1005.6 |
| 20260503225803 | 21 | 242 | 27.4 | 38.6 | 0.00 | 0.00 | 0.00 | 43 | 1005.8 |
| 20260503225258 | 21 | 247 | 24.1 | 51.5 | 0.00 | 0.00 | 0.00 | 43 | 1005.7 |
| 20260503224755 | 22 | 247 | 25.7 | 45.1 | 0.00 | 0.00 | 0.00 | 43 | 1005.7 |
| 20260503224253 | 21 | 243 | 8.0 | 51.5 | 0.00 | 0.00 | 0.00 | 43 | 1005.6 |
| 20260503223750 | 21 | 255 | 27.4 | 48.3 | 0.00 | 0.00 | 0.00 | 43 | 1005.6 |
| 20260503223248 | 21 | 250 | 20.9 | 43.5 | 0.00 | 0.00 | 0.00 | 43 | 1005.9 |
| 20260503222743 | 21 | 248 | 24.1 | 43.5 | 0.00 | 0.00 | 0.00 | 43 | 1005.6 |
| 20260503222242 | 21 | 246 | 32.2 | 37.0 | 0.00 | 0.00 | 0.00 | 43 | 1005.7 |
| 20260503221740 | 22 | 260 | 20.9 | 37.0 | 0.00 | 0.00 | 0.00 | 42 | 1005.9 |
| 20260503221237 | 22 | 260 | 20.9 | 45.1 | 0.00 | 0.00 | 0.00 | 42 | 1005.8 |
| 20260503220733 | 22 | 244 | 16.1 | 40.2 | 0.00 | 0.00 | 0.00 | 42 | 1005.7 |
| 20260503220231 | 22 | 251 | 41.8 | 48.3 | 0.00 | 0.00 | 0.00 | 41 | 1005.7 |
| 20260503215727 | 22 | 255 | 24.1 | 38.6 | 0.00 | 0.00 | 0.00 | 41 | 1005.6 |
| 20260503215224 | 22 | 250 | 20.9 | 41.8 | 0.00 | 0.00 | 0.00 | 40 | 1005.8 |
| 20260503214723 | 22 | 251 | 27.4 | 37.0 | 0.00 | 0.00 | 0.00 | 40 | 1005.6 |
| 20260503214219 | 22 | 252 | 25.7 | 35.4 | 0.00 | 0.00 | 0.00 | 39 | 1005.7 |
| 20260503213717 | 22 | 246 | 25.7 | 32.2 | 0.00 | 0.00 | 0.00 | 41 | 1005.5 |
| 20260503213214 | 22 | 256 | 17.7 | 32.2 | 0.00 | 0.00 | 0.00 | 39 | 1005.6 |
| 20260503212711 | 22 | 236 | 27.4 | 41.8 | 0.00 | 0.00 | 0.00 | 39 | 1005.8 |
| 20260503212209 | 22 | 256 | 16.1 | 41.8 | 0.00 | 0.00 | 0.00 | 38 | 1005.5 |
| 20260503211706 | 22 | 266 | 17.7 | 43.5 | 0.00 | 0.00 | 0.00 | 39 | 1005.6 |
| 20260503211202 | 22 | 275 | 25.7 | 35.4 | 0.00 | 0.00 | 0.00 | 38 | 1005.9 |
| 20260503210658 | 23 | 251 | 27.4 | 30.6 | 0.00 | 0.00 | 0.00 | 38 | 1005.7 |
| 20260503210155 | 22 | 281 | 20.9 | 27.4 | 0.00 | 0.00 | 0.00 | 39 | 1006.0 |
| 20260503205650 | 22 | 255 | 16.1 | 35.4 | 0.00 | 0.00 | 0.00 | 39 | 1006.0 |
| 20260503205146 | 22 | 282 | 25.7 | 30.6 | 0.00 | 0.00 | 0.00 | 38 | 1006.0 |
| 20260503204643 | 22 | 261 | 16.1 | 35.4 | 0.00 | 0.00 | 0.00 | 39 | 1006.0 |
| 20260503204141 | 21 | 274 | 17.7 | 32.2 | 0.00 | 0.00 | 0.00 | 41 | 1006.2 |
| 20260503203638 | 22 | 261 | 32.2 | 40.2 | 0.00 | 0.00 | 0.00 | 39 | 1006.3 |
| 20260503203136 | 22 | 252 | 24.1 | 35.4 | 0.00 | 0.00 | 0.00 | 40 | 1006.2 |
| 20260503202633 | 21 | 257 | 24.1 | 48.3 | 0.00 | 0.00 | 0.00 | 39 | 1006.2 |
| 20260503202131 | 22 | 227 | 9.7 | 35.4 | 0.00 | 0.00 | 0.00 | 39 | 1006.4 |
| 20260503201629 | 21 | 242 | 20.9 | 37.0 | 0.00 | 0.00 | 0.00 | 40 | 1006.2 |
| 20260503201126 | 21 | 243 | 19.3 | 32.2 | 0.00 | 0.00 | 0.00 | 40 | 1006.4 |
| 20260503200621 | 21 | 260 | 14.5 | 35.4 | 0.00 | 0.00 | 0.00 | 41 | 1006.5 |
| 20260503200118 | 21 | 262 | 27.4 | 51.5 | 0.00 | 0.00 | 0.00 | 40 | 1006.4 |
| 20260503195615 | 21 | 251 | 29.0 | 48.3 | 0.00 | 0.00 | 0.00 | 40 | 1006.5 |
| 20260503195112 | 21 | 244 | 12.9 | 33.8 | 0.00 | 0.00 | 0.00 | 41 | 1006.6 |
| 20260503194609 | 21 | 250 | 19.3 | 40.2 | 0.00 | 0.00 | 0.00 | 42 | 1006.6 |
| 20260503194104 | 21 | 268 | 27.4 | 33.8 | 0.00 | 0.00 | 0.00 | 41 | 1006.7 |
| 20260503193601 | 21 | 256 | 25.7 | 43.5 | 0.00 | 0.00 | 0.00 | 41 | 1006.9 |
| 20260503193056 | 21 | 257 | 19.3 | 56.3 | 0.00 | 0.00 | 0.00 | 41 | 1006.9 |
| 20260503192553 | 20 | 246 | 27.4 | 33.8 | 0.00 | 0.00 | 0.00 | 41 | 1007.0 |
| 20260503192049 | 20 | 251 | 19.3 | 45.1 | 0.00 | 0.00 | 0.00 | 42 | 1007.0 |
| 20260503191545 | 21 | 267 | 30.6 | 43.5 | 0.00 | 0.00 | 0.00 | 41 | 1007.0 |
| 20260503191042 | 20 | 247 | 11.3 | 38.6 | 0.00 | 0.00 | 0.00 | 42 | 1007.1 |
| 20260503190539 | 20 | 248 | 24.1 | 41.8 | 0.00 | 0.00 | 0.00 | 42 | 1007.0 |
| 20260503190037 | 20 | 244 | 30.6 | 48.3 | 0.00 | 0.00 | 0.00 | 41 | 1007.2 |
| 20260503185533 | 20 | 269 | 35.4 | 38.6 | 0.00 | 0.00 | 0.00 | 42 | 1007.3 |
| 20260503185032 | 20 | 250 | 33.8 | 45.1 | 0.00 | 0.00 | 0.00 | 43 | 1007.2 |
| 20260503184529 | 20 | 255 | 17.7 | 40.2 | 0.00 | 0.00 | 0.00 | 44 | 1007.2 |
| 20260503184026 | 20 | 259 | 56.3 | 56.3 | 0.00 | 0.00 | 0.00 | 43 | 1007.4 |
| 20260503183522 | 20 | 258 | 16.1 | 45.1 | 0.00 | 0.00 | 0.00 | 43 | 1007.5 |
| 20260503183019 | 19 | 249 | 27.4 | 40.2 | 0.00 | 0.00 | 0.00 | 44 | 1007.4 |
| 20260503182518 | 19 | 257 | 29.0 | 33.8 | 0.00 | 0.00 | 0.00 | 46 | 1007.6 |
| 20260503182015 | 18 | 236 | 9.7 | 29.0 | 0.00 | 0.00 | 0.00 | 45 | 1007.7 |
| 20260503181512 | 18 | 244 | 32.2 | 57.9 | 0.00 | 0.00 | 0.00 | 45 | 1007.5 |
| 20260503181008 | 18 | 251 | 19.3 | 54.7 | 0.00 | 0.00 | 0.00 | 45 | 1007.8 |
| 20260503180506 | 18 | 246 | 40.2 | 51.5 | 0.00 | 0.00 | 0.00 | 45 | 1008.1 |
| 20260503180003 | 18 | 256 | 24.1 | 37.0 | 0.00 | 0.00 | 0.00 | 44 | 1007.7 |
| 20260503175501 | 18 | 253 | 25.7 | 41.8 | 0.00 | 0.00 | 0.00 | 45 | 1008.0 |
| 20260503174957 | 18 | 246 | 32.2 | 53.1 | 0.00 | 0.00 | 0.00 | 45 | 1008.1 |
| 20260503174455 | 18 | 245 | 12.9 | 45.1 | 0.00 | 0.00 | 0.00 | 48 | 1008.3 |
| 20260503173950 | 17 | 240 | 27.4 | 37.0 | 0.00 | 0.00 | 0.00 | 47 | 1008.3 |
| 20260503173446 | 17 | 246 | 40.2 | 62.8 | 0.00 | 0.00 | 0.00 | 47 | 1008.3 |
| 20260503172943 | 17 | 249 | 17.7 | 45.1 | 0.00 | 0.00 | 0.00 | 47 | 1008.4 |
| 20260503172440 | 17 | 242 | 27.4 | 46.7 | 0.00 | 0.00 | 0.00 | 47 | 1008.4 |
| 20260503171937 | 17 | 244 | 17.7 | 48.3 | 0.00 | 0.00 | 0.00 | 46 | 1008.8 |
| 20260503171433 | 17 | 252 | 25.7 | 48.3 | 0.00 | 0.00 | 0.00 | 46 | 1008.8 |
| 20260503170931 | 17 | 240 | 11.3 | 62.8 | 0.00 | 0.00 | 0.00 | 46 | 1008.6 |
| 20260503170427 | 17 | 238 | 32.2 | 38.6 | 0.00 | 0.00 | 0.00 | 46 | 1008.8 |
| 20260503150819 | 11 | 306 | 8.0 | 25.7 | 0.00 | 0.00 | 0.00 | 68 | 1010.3 |
| 20260503150315 | 11 | 150 | 6.4 | 24.1 | 0.00 | 0.00 | 0.00 | 67 | 1010.3 |
| 20260503140240 | 10 | 146 | 8.0 | 16.1 | 0.00 | 0.00 | 0.00 | 71 | 1011.9 |